Time;durP1;ratioP1;P1;durP2;ratioP2;P2;SDS_P1;SDS_P2;PMS_P1;PMS_P2;Temp;Humidity;BMP_temperature;BMP_pressure;BME280_temperature;BME280_humidity;BME280_pressure;Samples;Min_cycle;Max_cycle;Signal;HPM_P1;HPM_P2
2021/03/15 00:00:39;;;;;;;5.30;4.30;;;8.20;52.60;;;;;;5079173;28;20811;-84
2021/03/15 00:03:06;;;;;;;3.47;3.20;;;8.20;51.50;;;;;;5078402;28;20443;-84
2021/03/15 00:05:32;;;;;;;5.00;3.73;;;8.00;52.30;;;;;;5077665;28;20473;-84
2021/03/15 00:08:00;;;;;;;6.87;4.13;;;8.00;52.60;;;;;;5076772;28;20459;-84
2021/03/15 00:10:26;;;;;;;6.00;4.10;;;8.00;52.10;;;;;;5078923;28;21027;-85
2021/03/15 00:12:53;;;;;;;7.37;4.20;;;8.00;51.70;;;;;;5078149;28;20479;-85
2021/03/15 00:15:21;;;;;;;9.13;3.27;;;7.80;52.10;;;;;;5077527;28;20491;-85
2021/03/15 00:17:48;;;;;;;3.60;3.43;;;7.40;53.20;;;;;;5080579;28;20448;-85
2021/03/15 00:20:17;;;;;;;9.10;4.37;;;7.20;53.90;;;;;;5080179;28;20489;-85
2021/03/15 00:22:45;;;;;;;6.90;3.17;;;7.40;53.80;;;;;;5079410;28;20940;-85
2021/03/15 00:25:13;;;;;;;5.00;3.87;;;7.60;54.20;;;;;;5079570;28;20520;-85
2021/03/15 00:27:40;;;;;;;5.17;3.30;;;7.60;52.70;;;;;;5078813;28;20518;-85
2021/03/15 00:30:09;;;;;;;7.00;3.90;;;7.40;53.80;;;;;;5079234;28;20813;-85
2021/03/15 00:32:36;;;;;;;7.53;3.30;;;7.50;53.10;;;;;;5077701;28;20483;-85
2021/03/15 00:35:03;;;;;;;6.10;3.77;;;7.10;53.60;;;;;;5082106;28;20984;-84
2021/03/15 00:37:29;;;;;;;5.37;4.10;;;7.00;55.00;;;;;;5080578;28;20466;-84
2021/03/15 00:39:56;;;;;;;5.50;4.10;;;7.30;53.50;;;;;;5076110;28;20431;-84
2021/03/15 00:42:23;;;;;;;5.33;3.47;;;7.30;53.30;;;;;;5075901;28;20471;-85
2021/03/15 00:44:50;;;;;;;4.63;3.70;;;7.00;52.60;;;;;;5074838;28;20532;-85
2021/03/15 00:47:16;;;;;;;6.03;4.00;;;6.90;53.10;;;;;;5074899;28;20893;-85
2021/03/15 00:49:43;;;;;;;4.30;3.23;;;7.20;53.70;;;;;;5075116;28;20447;-85
2021/03/15 00:52:09;;;;;;;8.10;3.83;;;7.30;54.90;;;;;;5074909;28;20470;-85
2021/03/15 00:54:36;;;;;;;3.97;3.70;;;7.10;53.60;;;;;;5080151;28;20503;-85
2021/03/15 00:57:03;;;;;;;6.00;3.37;;;7.10;53.20;;;;;;5077016;28;20431;-85
2021/03/15 00:59:30;;;;;;;3.63;2.97;;;7.30;52.60;;;;;;5076530;28;20443;-85
2021/03/15 01:01:56;;;;;;;3.93;3.43;;;7.60;54.40;;;;;;5075398;28;20439;-85
2021/03/15 01:04:23;;;;;;;4.60;3.10;;;7.90;52.40;;;;;;5074755;28;20509;-85
2021/03/15 01:06:49;;;;;;;4.70;3.63;;;7.90;52.40;;;;;;5074504;28;20479;-86
2021/03/15 01:09:17;;;;;;;9.13;4.00;;;7.30;52.30;;;;;;5074060;28;20447;-85
2021/03/15 01:11:43;;;;;;;3.70;3.20;;;7.10;53.40;;;;;;5074547;28;20471;-86
2021/03/15 01:14:11;;;;;;;8.40;3.80;;;7.20;53.40;;;;;;5074107;28;20501;-86
2021/03/15 01:16:38;;;;;;;5.90;3.83;;;7.20;54.00;;;;;;5074195;28;20876;-86
2021/03/15 01:19:05;;;;;;;5.10;2.67;;;7.50;52.80;;;;;;5074505;28;20436;-86
2021/03/15 01:21:32;;;;;;;9.53;4.43;;;7.70;54.20;;;;;;5075765;28;20443;-86
2021/03/15 01:23:59;;;;;;;5.37;3.20;;;7.80;51.80;;;;;;5058872;28;20524;-85
2021/03/15 01:26:25;;;;;;;4.43;3.10;;;7.60;52.80;;;;;;5076292;28;20964;-85
2021/03/15 01:28:52;;;;;;;8.03;4.17;;;7.90;53.80;;;;;;5076502;28;20994;-85
2021/03/15 01:31:19;;;;;;;4.83;3.90;;;8.10;51.80;;;;;;5075166;28;20487;-85
2021/03/15 01:33:46;;;;;;;8.60;2.93;;;7.60;51.60;;;;;;5074391;28;20452;-85
2021/03/15 01:36:13;;;;;;;5.97;3.27;;;7.20;53.50;;;;;;5074015;28;20786;-85
2021/03/15 01:38:39;;;;;;;9.70;3.63;;;7.20;53.60;;;;;;5073870;28;20452;-85
2021/03/15 01:41:08;;;;;;;8.53;4.13;;;6.90;53.30;;;;;;5074045;28;20873;-85
2021/03/15 01:43:34;;;;;;;4.40;3.17;;;6.80;54.80;;;;;;5073124;28;20458;-85
2021/03/15 01:46:01;;;;;;;7.03;3.27;;;7.20;54.60;;;;;;5074065;28;20519;-85
2021/03/15 01:48:28;;;;;;;10.60;3.90;;;7.20;53.20;;;;;;5074070;28;20467;-85
2021/03/15 01:50:55;;;;;;;6.00;3.47;;;7.20;54.50;;;;;;5073823;28;20443;-85
2021/03/15 01:53:22;;;;;;;7.37;3.97;;;7.60;54.20;;;;;;5073397;28;20998;-85
2021/03/15 01:55:49;;;;;;;3.87;2.57;;;8.20;51.30;;;;;;5074983;28;20475;-85
2021/03/15 01:58:17;;;;;;;7.27;3.60;;;8.40;52.50;;;;;;5074667;28;20825;-85
2021/03/15 02:00:44;;;;;;;4.90;3.23;;;7.80;50.60;;;;;;5073674;28;20481;-85
2021/03/15 02:03:11;;;;;;;2.97;2.60;;;7.90;52.20;;;;;;5073698;28;20908;-85
2021/03/15 02:05:40;;;;;;;4.00;3.00;;;8.00;53.20;;;;;;5073293;28;20459;-85
2021/03/15 02:08:08;;;;;;;5.10;3.10;;;8.10;52.30;;;;;;5073674;28;20824;-85
2021/03/15 02:10:35;;;;;;;4.47;3.20;;;7.70;51.90;;;;;;5074760;28;20457;-85
2021/03/15 02:13:28;;;;;;;6.70;2.87;;;7.60;55.50;;;;;;5076570;28;20529;-85
2021/03/15 02:16:08;;;;;;;8.97;3.50;;;7.90;53.10;;;;;;5077106;28;20459;-85
2021/03/15 02:18:45;;;;;;;6.00;3.27;;;7.70;51.90;;;;;;5077336;28;20446;-85
2021/03/15 02:21:44;;;;;;;5.63;3.57;;;7.90;55.00;;;;;;5076740;28;20459;-85
2021/03/15 02:24:20;;;;;;;6.43;3.33;;;7.70;53.10;;;;;;5060018;28;20478;-85
2021/03/15 02:27:29;;;;;;;5.00;3.00;;;8.00;53.00;;;;;;5077248;28;20510;-85
2021/03/15 02:30:11;;;;;;;5.37;3.23;;;7.80;52.40;;;;;;5077582;28;20470;-85
2021/03/15 02:33:09;;;;;;;9.60;3.03;;;7.60;52.80;;;;;;5077988;28;20466;-85
2021/03/15 02:35:39;;;;;;;5.53;3.23;;;7.90;54.00;;;;;;5078056;28;20474;-85
2021/03/15 02:38:08;;;;;;;6.93;3.13;;;8.10;52.00;;;;;;5078217;28;20453;-85
2021/03/15 02:40:36;;;;;;;8.97;4.80;;;8.30;50.80;;;;;;5099926;28;20423;-85
2021/03/15 02:43:07;;;;;;;5.83;3.27;;;8.60;51.10;;;;;;5100772;28;20423;-85
2021/03/15 02:45:37;;;;;;;5.03;3.17;;;8.50;49.50;;;;;;5100445;28;20462;-85
2021/03/15 02:48:06;;;;;;;13.90;3.80;;;8.40;50.10;;;;;;5085180;28;20786;-85
2021/03/15 02:50:36;;;;;;;5.73;3.10;;;8.50;49.30;;;;;;5097753;28;20439;-85
2021/03/15 02:53:06;;;;;;;5.93;3.00;;;8.50;49.90;;;;;;5100205;28;20486;-84
2021/03/15 02:55:34;;;;;;;5.67;2.77;;;9.00;51.30;;;;;;5100670;28;20483;-85
2021/03/15 02:58:02;;;;;;;8.13;3.87;;;8.60;51.10;;;;;;5099616;28;20445;-85
2021/03/15 03:00:29;;;;;;;4.13;2.80;;;8.20;51.90;;;;;;5087578;28;20469;-85
2021/03/15 03:02:57;;;;;;;6.13;3.80;;;8.60;51.00;;;;;;5078330;28;20444;-85
2021/03/15 03:05:24;;;;;;;5.90;3.03;;;8.30;49.90;;;;;;5077038;28;20501;-85
2021/03/15 03:07:54;;;;;;;9.20;3.10;;;8.00;52.00;;;;;;5075345;28;20466;-85
2021/03/15 03:10:24;;;;;;;5.57;3.00;;;7.60;52.00;;;;;;5077306;28;20435;-85
2021/03/15 03:12:51;;;;;;;11.07;3.73;;;7.70;53.20;;;;;;5078238;28;20887;-84
2021/03/15 03:15:22;;;;;;;7.03;3.73;;;8.00;53.30;;;;;;5076643;28;20518;-84
2021/03/15 03:17:50;;;;;;;7.20;3.47;;;7.80;52.70;;;;;;5076943;28;20489;-84
2021/03/15 03:20:20;;;;;;;4.97;2.77;;;8.30;52.60;;;;;;5077097;28;20463;-84
2021/03/15 03:22:48;;;;;;;8.33;4.10;;;8.20;54.10;;;;;;5076719;28;20475;-84
2021/03/15 03:25:17;;;;;;;15.03;3.20;;;7.90;51.90;;;;;;5076362;28;20475;-85
2021/03/15 03:27:53;;;;;;;10.47;3.10;;;7.50;53.30;;;;;;5077349;28;20456;-85
2021/03/15 03:30:22;;;;;;;12.07;4.80;;;7.60;53.50;;;;;;5078107;28;20481;-85
2021/03/15 03:32:50;;;;;;;4.70;2.50;;;7.10;53.20;;;;;;5076850;28;20475;-85
2021/03/15 03:35:17;;;;;;;7.83;3.87;;;7.90;55.90;;;;;;5077339;28;20554;-85
2021/03/15 03:37:44;;;;;;;4.70;2.73;;;8.40;51.90;;;;;;5075934;28;20485;-85
2021/03/15 03:40:12;;;;;;;12.80;4.37;;;8.30;52.40;;;;;;5076625;28;20817;-85
2021/03/15 03:42:38;;;;;;;12.43;3.67;;;8.30;51.80;;;;;;5075622;28;20451;-85
2021/03/15 03:45:07;;;;;;;4.33;2.63;;;8.70;51.60;;;;;;5075365;28;20479;-85
2021/03/15 03:47:34;;;;;;;5.40;2.90;;;9.10;51.70;;;;;;5076036;28;20892;-85
2021/03/15 03:50:00;;;;;;;5.10;3.30;;;10.00;48.90;;;;;;5075439;28;20458;-85
2021/03/15 03:52:30;;;;;;;5.50;3.20;;;10.20;49.40;;;;;;5075437;28;20515;-85
2021/03/15 03:54:59;;;;;;;4.23;2.60;;;10.90;47.00;;;;;;5075740;28;20456;-85
2021/03/15 03:57:31;;;;;;;6.23;2.90;;;11.10;46.10;;;;;;5075230;28;20434;-85
2021/03/15 04:00:04;;;;;;;4.80;2.63;;;11.10;44.80;;;;;;5075685;28;20779;-85
2021/03/15 04:02:33;;;;;;;4.20;2.67;;;11.20;46.00;;;;;;5075507;28;20844;-85
2021/03/15 04:05:04;;;;;;;8.73;2.97;;;11.00;45.60;;;;;;5075214;28;21002;-85
2021/03/15 04:07:33;;;;;;;5.87;3.07;;;10.90;44.00;;;;;;5075081;28;20528;-85
2021/03/15 04:10:05;;;;;;;6.90;3.13;;;10.90;44.60;;;;;;5074938;28;20484;-85
2021/03/15 04:12:34;;;;;;;7.57;3.37;;;10.60;44.40;;;;;;5074837;28;20504;-85
2021/03/15 04:15:02;;;;;;;3.40;2.90;;;10.40;45.60;;;;;;5074659;28;20503;-85
2021/03/15 04:17:37;;;;;;;6.80;2.90;;;10.50;46.40;;;;;;5075825;28;20514;-86
2021/03/15 04:20:07;;;;;;;24.63;8.80;;;10.50;46.00;;;;;;5075519;28;20467;-86
2021/03/15 04:22:39;;;;;;;6.20;3.43;;;10.50;48.10;;;;;;5074986;28;20493;-86
2021/03/15 04:25:07;;;;;;;7.70;3.50;;;10.50;46.60;;;;;;5075286;28;20502;-86
2021/03/15 04:27:36;;;;;;;9.00;3.10;;;10.20;45.90;;;;;;5074811;28;20769;-85
2021/03/15 04:30:03;;;;;;;6.63;3.10;;;10.00;47.10;;;;;;5076630;28;20451;-85
2021/03/15 04:32:30;;;;;;;6.30;3.60;;;10.30;48.20;;;;;;5076355;28;20518;-85
2021/03/15 04:34:59;;;;;;;5.40;3.23;;;10.30;46.50;;;;;;5075658;28;20575;-85
2021/03/15 04:37:27;;;;;;;9.53;3.43;;;10.80;47.70;;;;;;5075655;28;20459;-86
2021/03/15 04:39:54;;;;;;;9.63;3.30;;;11.30;46.80;;;;;;5075517;28;20435;-86
2021/03/15 04:42:22;;;;;;;7.63;3.03;;;11.80;45.80;;;;;;5076211;28;20523;-85
2021/03/15 04:44:49;;;;;;;7.23;3.30;;;12.10;44.50;;;;;;5076526;28;20886;-85
2021/03/15 04:47:17;;;;;;;5.40;3.30;;;12.10;43.80;;;;;;5075342;28;20477;-85
2021/03/15 04:49:47;;;;;;;7.40;3.00;;;12.00;44.00;;;;;;5074739;28;20477;-85
2021/03/15 04:52:15;;;;;;;11.10;3.13;;;11.90;43.20;;;;;;5075261;28;20501;-85
2021/03/15 04:54:43;;;;;;;6.13;3.40;;;11.80;44.00;;;;;;5075329;28;20479;-85
2021/03/15 04:57:11;;;;;;;10.20;3.50;;;11.10;44.20;;;;;;5074084;28;20546;-85
2021/03/15 04:59:39;;;;;;;5.90;2.77;;;10.80;44.20;;;;;;5074626;28;20446;-85
2021/03/15 05:02:06;;;;;;;4.20;3.20;;;10.10;45.30;;;;;;5074701;28;20448;-85
2021/03/15 05:04:34;;;;;;;7.77;4.00;;;9.90;49.00;;;;;;5074710;28;20494;-86
2021/03/15 05:07:02;;;;;;;8.77;3.20;;;9.90;47.30;;;;;;5075568;28;20458;-86
2021/03/15 05:09:31;;;;;;;5.77;2.77;;;10.00;47.40;;;;;;5074758;28;20456;-86
2021/03/15 05:11:58;;;;;;;9.20;3.70;;;10.20;46.40;;;;;;5074516;28;20917;-86
2021/03/15 05:14:25;;;;;;;7.93;3.00;;;10.50;46.60;;;;;;5074792;28;20546;-85
2021/03/15 05:16:52;;;;;;;6.27;3.47;;;10.90;47.00;;;;;;5074792;28;20458;-85
2021/03/15 05:19:20;;;;;;;7.77;3.17;;;11.50;46.20;;;;;;5075349;28;20476;-85
2021/03/15 05:21:48;;;;;;;5.03;2.97;;;12.00;44.90;;;;;;5075558;28;20966;-85
2021/03/15 05:24:16;;;;;;;5.93;3.23;;;12.40;44.80;;;;;;5075071;28;20496;-85
2021/03/15 05:26:44;;;;;;;6.63;2.93;;;12.60;44.30;;;;;;5075883;28;20455;-85
2021/03/15 05:29:14;;;;;;;3.23;2.63;;;12.90;42.80;;;;;;5075156;28;20797;-85
2021/03/15 05:31:44;;;;;;;4.20;2.90;;;12.60;42.70;;;;;;5074074;28;20890;-86
2021/03/15 05:34:13;;;;;;;4.30;2.70;;;12.20;42.30;;;;;;5073773;28;20473;-86
2021/03/15 05:36:40;;;;;;;5.40;2.83;;;12.10;43.70;;;;;;5074849;28;20456;-86
2021/03/15 05:39:07;;;;;;;14.57;3.87;;;12.00;43.80;;;;;;5078439;28;20445;-86
2021/03/15 05:41:55;;;;;;;4.00;2.70;;;10.90;42.80;;;;;;5084821;28;20436;-86
2021/03/15 05:44:39;;;;;;;5.40;2.47;;;10.50;45.40;;;;;;5081528;28;20475;-85
2021/03/15 05:47:57;;;;;;;8.63;3.00;;;9.80;48.50;;;;;;5079154;28;20909;-85
2021/03/15 05:50:46;;;;;;;4.53;2.83;;;9.70;48.80;;;;;;5078099;28;20788;-86
2021/03/15 05:53:39;;;;;;;5.67;3.00;;;9.10;49.80;;;;;;5075004;28;20479;-86
2021/03/15 05:56:19;;;;;;;3.90;2.47;;;9.00;49.40;;;;;;5076129;28;20440;-85
2021/03/15 05:59:21;;;;;;;5.40;2.47;;;9.70;48.10;;;;;;5080056;28;20798;-85
2021/03/15 06:02:17;;;;;;;4.20;2.60;;;10.00;47.80;;;;;;5062610;28;20882;-85
2021/03/15 06:04:56;;;;;;;13.03;3.07;;;10.10;45.60;;;;;;5049867;28;20562;-85
2021/03/15 06:07:27;;;;;;;10.23;2.80;;;9.90;47.80;;;;;;5077125;28;20419;-85
2021/03/15 06:10:04;;;;;;;4.13;2.77;;;9.70;47.60;;;;;;5077922;28;20431;-85
2021/03/15 06:12:38;;;;;;;4.63;2.67;;;9.20;49.90;;;;;;5077475;28;20459;-85
2021/03/15 06:15:06;;;;;;;5.70;3.20;;;9.60;50.20;;;;;;5080767;28;20555;-85
2021/03/15 06:17:35;;;;;;;4.67;3.07;;;9.90;49.20;;;;;;5080388;28;20445;-85
2021/03/15 06:20:05;;;;;;;5.00;2.67;;;9.70;47.50;;;;;;5080317;28;20427;-85
2021/03/15 06:22:33;;;;;;;4.97;2.50;;;9.90;50.40;;;;;;5080496;28;20431;-85
2021/03/15 06:25:01;;;;;;;10.60;3.37;;;9.70;48.20;;;;;;5088784;28;20475;-84
2021/03/15 06:27:29;;;;;;;5.83;3.30;;;9.10;48.60;;;;;;5095148;28;20420;-84
2021/03/15 06:29:57;;;;;;;7.83;2.90;;;8.60;50.30;;;;;;5088383;28;20504;-85
2021/03/15 06:32:26;;;;;;;6.10;3.73;;;8.60;51.50;;;;;;5082757;28;20542;-85
2021/03/15 06:34:55;;;;;;;8.80;3.37;;;8.60;52.30;;;;;;5080967;28;20570;-85
2021/03/15 06:37:22;;;;;;;4.53;2.77;;;8.20;49.80;;;;;;5081777;28;20463;-85
2021/03/15 06:39:51;;;;;;;4.53;2.60;;;7.70;52.70;;;;;;5081678;28;20979;-85
2021/03/15 06:42:19;;;;;;;2.73;2.60;;;7.30;53.90;;;;;;5079902;28;20473;-85
2021/03/15 06:44:45;;;;;;;3.93;2.73;;;7.10;54.90;;;;;;5079821;28;20471;-85
2021/03/15 06:47:12;;;;;;;4.60;2.80;;;7.20;55.80;;;;;;5080094;28;20498;-85
2021/03/15 06:49:39;;;;;;;6.53;3.13;;;7.30;55.70;;;;;;5078672;28;20479;-85
2021/03/15 06:52:09;;;;;;;8.63;2.97;;;7.20;53.90;;;;;;5077908;28;20520;-85
2021/03/15 06:54:35;;;;;;;3.50;3.07;;;7.30;55.80;;;;;;5076997;28;20474;-84
2021/03/15 06:57:12;;;;;;;5.43;2.60;;;7.20;54.80;;;;;;5077856;28;20447;-85
2021/03/15 06:59:50;;;;;;;3.40;2.63;;;7.10;56.50;;;;;;5083066;28;20442;-85
2021/03/15 07:02:24;;;;;;;8.00;2.93;;;7.60;54.90;;;;;;5084168;28;20446;-85
2021/03/15 07:04:52;;;;;;;6.23;2.67;;;7.50;54.00;;;;;;5081756;28;20459;-85
2021/03/15 07:07:23;;;;;;;4.60;2.40;;;7.40;54.90;;;;;;5082344;28;20816;-83
2021/03/15 07:09:51;;;;;;;3.90;3.10;;;7.60;55.70;;;;;;5082402;28;20466;-83
2021/03/15 07:12:22;;;;;;;17.83;3.50;;;7.40;55.20;;;;;;5078122;28;21031;-84
2021/03/15 07:14:49;;;;;;;8.77;3.00;;;7.50;54.60;;;;;;5076865;28;20471;-84
2021/03/15 07:17:26;;;;;;;8.43;3.50;;;8.10;55.30;;;;;;5077076;28;20443;-84
2021/03/15 07:19:53;;;;;;;3.90;3.27;;;8.00;53.40;;;;;;5077121;28;20431;-84
2021/03/15 07:22:26;;;;;;;6.57;3.40;;;7.70;55.60;;;;;;5076534;28;20648;-84
2021/03/15 07:25:08;;;;;;;6.00;3.10;;;7.60;55.80;;;;;;5077138;28;20513;-84
2021/03/15 07:27:35;;;;;;;12.60;3.60;;;7.80;55.50;;;;;;5078417;28;20941;-84
2021/03/15 07:30:29;;;;;;;7.60;3.50;;;8.00;54.80;;;;;;5079172;28;20447;-84
2021/03/15 07:32:58;;;;;;;3.33;2.50;;;8.80;53.70;;;;;;5079224;28;20586;-83
2021/03/15 07:35:26;;;;;;;3.37;3.20;;;8.80;53.00;;;;;;5079932;28;20451;-84
2021/03/15 07:37:54;;;;;;;3.67;3.00;;;8.90;52.50;;;;;;5079448;28;20489;-84
2021/03/15 07:40:51;;;;;;;3.30;2.80;;;9.10;52.30;;;;;;5079339;28;20454;-84
2021/03/15 07:43:26;;;;;;;3.23;2.60;;;8.80;51.80;;;;;;4999106;28;20428;-84
2021/03/15 07:45:52;;;;;;;3.97;2.60;;;8.70;53.40;;;;;;5065676;28;20478;-84
2021/03/15 07:48:21;;;;;;;2.73;2.57;;;8.60;53.00;;;;;;5080369;28;20495;-84
2021/03/15 07:50:56;;;;;;;2.37;2.20;;;8.90;52.10;;;;;;5086512;28;20466;-84
2021/03/15 07:53:42;;;;;;;2.50;2.30;;;9.10;50.80;;;;;;5094466;28;20474;-84
2021/03/15 07:56:10;;;;;;;4.60;2.63;;;8.30;53.10;;;;;;5095457;28;20435;-84
2021/03/15 07:58:39;;;;;;;3.60;3.00;;;8.10;53.80;;;;;;5098270;28;20415;-84
2021/03/15 08:01:07;;;;;;;2.83;2.63;;;8.10;54.10;;;;;;5098488;28;20445;-84
2021/03/15 08:03:36;;;;;;;2.67;2.40;;;8.30;53.80;;;;;;5097572;28;20416;-84
2021/03/15 08:06:03;;;;;;;2.47;2.27;;;8.30;52.80;;;;;;5081661;28;20448;-84
2021/03/15 08:08:29;;;;;;;6.37;2.70;;;8.00;54.80;;;;;;5094588;28;20466;-84
2021/03/15 08:10:57;;;;;;;3.03;2.40;;;8.30;53.50;;;;;;5097912;28;20420;-84
2021/03/15 08:13:25;;;;;;;2.30;2.10;;;7.90;54.90;;;;;;5098289;28;20479;-84
2021/03/15 08:15:53;;;;;;;2.60;2.40;;;7.90;54.40;;;;;;5098260;28;20561;-84
2021/03/15 08:18:22;;;;;;;3.50;2.50;;;8.20;54.40;;;;;;5083056;28;20423;-84
2021/03/15 08:20:52;;;;;;;5.40;3.03;;;8.40;55.30;;;;;;5076586;28;20448;-85
2021/03/15 08:23:20;;;;;;;2.27;2.07;;;9.10;52.50;;;;;;5075578;28;21020;-85
2021/03/15 08:25:47;;;;;;;3.37;2.40;;;9.20;52.20;;;;;;5074649;28;20455;-85
2021/03/15 08:28:16;;;;;;;2.70;2.50;;;8.90;51.80;;;;;;5074733;28;20430;-84
2021/03/15 08:30:49;;;;;;;2.57;2.40;;;8.70;53.00;;;;;;5075288;28;20889;-84
2021/03/15 08:33:16;;;;;;;2.70;2.60;;;8.90;52.40;;;;;;5075495;28;20900;-84
2021/03/15 08:35:43;;;;;;;3.63;2.40;;;8.60;53.50;;;;;;5075101;28;20478;-84
2021/03/15 08:38:10;;;;;;;2.37;2.17;;;9.00;55.00;;;;;;5073961;28;20999;-84
2021/03/15 08:40:53;;;;;;;2.23;2.03;;;9.30;51.40;;;;;;5074792;28;20446;-84
2021/03/15 08:43:31;;;;;;;6.30;2.20;;;9.90;50.50;;;;;;5074774;28;20842;-84
2021/03/15 08:45:59;;;;;;;2.27;2.10;;;9.10;50.50;;;;;;5073911;28;20479;-83
2021/03/15 08:49:00;;;;;;;2.00;1.90;;;9.20;52.30;;;;;;5075751;28;20444;-84
2021/03/15 08:51:47;;;;;;;1.93;1.83;;;9.70;51.00;;;;;;4993170;28;20450;-84
2021/03/15 08:54:35;;;;;;;2.33;2.13;;;10.10;49.60;;;;;;5002503;28;20532;-84
2021/03/15 08:57:02;;;;;;;2.13;2.00;;;10.50;49.10;;;;;;4994407;28;20610;-84
2021/03/15 08:59:34;;;;;;;2.17;2.00;;;10.80;47.50;;;;;;4995054;28;20865;-85
2021/03/15 09:02:04;;;;;;;2.13;1.93;;;10.10;48.00;;;;;;4994685;28;20861;-85
2021/03/15 09:04:40;;;;;;;2.87;2.20;;;9.50;50.20;;;;;;4995840;28;20511;-85
2021/03/15 09:07:34;;;;;;;2.00;1.90;;;9.30;53.60;;;;;;4994770;28;20451;-86
2021/03/15 09:10:42;;;;;;;1.90;1.80;;;9.60;51.10;;;;;;4993991;28;20448;-85
2021/03/15 09:13:20;;;;;;;2.13;1.97;;;9.40;51.40;;;;;;4988552;28;20517;-84
2021/03/15 09:15:54;;;;;;;2.50;2.13;;;9.90;51.50;;;;;;4993842;28;20512;-85
2021/03/15 09:18:50;;;;;;;2.00;1.90;;;10.20;49.80;;;;;;4994941;28;20511;-85
2021/03/15 09:21:54;;;;;;;2.30;2.10;;;10.20;49.70;;;;;;5003553;28;20427;-85
2021/03/15 09:24:45;;;;;;;2.27;2.03;;;10.10;49.10;;;;;;5080123;28;20531;-85
2021/03/15 09:27:23;;;;;;;2.40;2.20;;;10.30;49.30;;;;;;5089915;28;20443;-85
2021/03/15 09:29:54;;;;;;;2.33;2.13;;;10.00;48.80;;;;;;5088910;28;20453;-85
2021/03/15 09:32:28;;;;;;;2.27;2.13;;;9.90;51.80;;;;;;5076276;28;21018;-86
2021/03/15 09:34:56;;;;;;;2.53;2.10;;;10.10;49.60;;;;;;5083173;28;20473;-86
2021/03/15 09:37:23;;;;;;;2.20;2.03;;;10.00;49.00;;;;;;5077993;28;20455;-86
2021/03/15 09:39:51;;;;;;;2.20;2.00;;;10.20;50.40;;;;;;5078017;28;20485;-86
2021/03/15 09:42:19;;;;;;;2.67;2.20;;;10.20;48.70;;;;;;5079085;28;20526;-86
2021/03/15 09:44:46;;;;;;;2.13;1.97;;;10.10;48.70;;;;;;5076841;28;20479;-86
2021/03/15 09:47:24;;;;;;;2.23;2.07;;;10.20;49.80;;;;;;5075235;28;20868;-86
2021/03/15 09:49:50;;;;;;;2.87;2.10;;;10.40;48.60;;;;;;5080126;28;20795;-85
2021/03/15 09:52:21;;;;;;;2.20;2.00;;;10.80;48.30;;;;;;5077956;28;21070;-85
2021/03/15 09:54:50;;;;;;;2.43;2.20;;;10.60;48.00;;;;;;5077809;28;20513;-86
2021/03/15 09:57:18;;;;;;;2.50;2.20;;;10.50;49.40;;;;;;5078597;28;20507;-86
2021/03/15 09:59:45;;;;;;;2.63;2.10;;;10.70;48.50;;;;;;5079578;28;20458;-84
2021/03/15 10:02:15;;;;;;;3.67;2.27;;;10.80;49.10;;;;;;5079336;28;20434;-85
2021/03/15 10:04:42;;;;;;;2.37;2.17;;;10.90;46.60;;;;;;5082451;28;20486;-85
2021/03/15 10:07:11;;;;;;;2.37;2.27;;;11.20;47.70;;;;;;5079508;28;21017;-84
2021/03/15 10:09:39;;;;;;;3.20;2.10;;;10.60;47.40;;;;;;5079731;28;20452;-85
2021/03/15 10:12:08;;;;;;;2.83;2.40;;;10.60;49.00;;;;;;5078840;28;20854;-86
2021/03/15 10:14:34;;;;;;;2.83;2.07;;;10.70;48.20;;;;;;5079429;28;20523;-85
2021/03/15 10:17:03;;;;;;;1.90;1.80;;;11.00;47.60;;;;;;5078579;28;20935;-85
2021/03/15 10:19:32;;;;;;;2.13;1.90;;;10.90;48.00;;;;;;5078375;28;20793;-85
2021/03/15 10:22:10;;;;;;;2.27;2.07;;;11.10;48.30;;;;;;5078598;28;20456;-85
2021/03/15 10:24:38;;;;;;;1.90;1.90;;;11.30;48.00;;;;;;5079717;28;20477;-84
2021/03/15 10:27:07;;;;;;;3.17;2.10;;;11.80;47.30;;;;;;5078740;28;20948;-85
2021/03/15 10:29:33;;;;;;;2.60;2.30;;;11.80;46.50;;;;;;5077913;28;20816;-85
2021/03/15 10:32:01;;;;;;;2.20;2.00;;;11.60;46.70;;;;;;5077810;28;20505;-85
2021/03/15 10:34:27;;;;;;;2.30;2.10;;;10.90;47.80;;;;;;5078211;28;20498;-84
2021/03/15 10:36:55;;;;;;;1.90;1.80;;;10.80;50.20;;;;;;5078151;28;20442;-85
2021/03/15 10:39:24;;;;;;;2.13;1.97;;;10.90;49.10;;;;;;5083328;28;20454;-85
2021/03/15 10:41:51;;;;;;;1.90;1.90;;;11.70;48.50;;;;;;5090196;28;20466;-85
2021/03/15 10:44:20;;;;;;;2.70;2.10;;;12.00;47.10;;;;;;5088223;28;20513;-85
2021/03/15 10:46:48;;;;;;;2.33;2.13;;;11.70;46.70;;;;;;5077864;28;20550;-85
2021/03/15 10:49:20;;;;;;;3.03;2.00;;;12.00;46.30;;;;;;5078057;28;20438;-85
2021/03/15 10:51:48;;;;;;;2.00;1.90;;;12.50;47.40;;;;;;5077133;28;20478;-85
2021/03/15 10:54:31;;;;;;;2.27;2.07;;;12.50;45.30;;;;;;5077266;28;20463;-85
2021/03/15 10:57:16;;;;;;;3.93;2.30;;;12.20;45.40;;;;;;5075469;28;20947;-85
2021/03/15 10:59:43;;;;;;;2.13;1.97;;;12.10;46.80;;;;;;5076011;28;20439;-85
2021/03/15 11:02:10;;;;;;;1.97;1.87;;;12.20;46.80;;;;;;5076744;28;20431;-86
2021/03/15 11:04:38;;;;;;;2.30;2.10;;;12.50;46.10;;;;;;5077005;28;20477;-85
2021/03/15 11:07:18;;;;;;;3.33;2.20;;;12.30;45.10;;;;;;5077126;28;20470;-85
2021/03/15 11:10:00;;;;;;;2.30;1.97;;;12.10;45.70;;;;;;5076875;28;20817;-85
2021/03/15 11:12:38;;;;;;;2.57;2.10;;;11.80;47.00;;;;;;5077198;28;20586;-85
2021/03/15 11:15:16;;;;;;;2.30;2.10;;;11.70;47.30;;;;;;5076640;28;20482;-85
2021/03/15 11:17:56;;;;;;;2.40;2.20;;;11.70;47.00;;;;;;5076488;28;20527;-84
2021/03/15 11:20:34;;;;;;;2.30;2.10;;;11.80;47.10;;;;;;5077438;28;20454;-83
2021/03/15 11:23:00;;;;;;;2.83;2.40;;;11.70;47.70;;;;;;5077087;28;20434;-85
2021/03/15 11:25:31;;;;;;;2.93;2.73;;;11.50;47.90;;;;;;5076831;28;20565;-85
2021/03/15 11:28:07;;;;;;;3.03;2.87;;;11.60;47.80;;;;;;5076456;28;20446;-85
2021/03/15 11:30:36;;;;;;;3.33;2.67;;;11.60;48.30;;;;;;5076969;28;20443;-85
2021/03/15 11:33:05;;;;;;;4.90;2.53;;;11.70;47.10;;;;;;5076849;28;20479;-83
2021/03/15 11:35:32;;;;;;;3.40;2.60;;;11.50;47.80;;;;;;5077633;28;20447;-82
2021/03/15 11:38:00;;;;;;;3.80;2.47;;;11.40;48.50;;;;;;5077455;28;20509;-83
2021/03/15 11:40:33;;;;;;;2.70;2.57;;;11.60;48.10;;;;;;5077675;28;20925;-83
2021/03/15 11:43:00;;;;;;;3.30;2.70;;;11.60;48.40;;;;;;5076914;28;20451;-83
2021/03/15 11:45:28;;;;;;;2.93;2.40;;;11.60;47.80;;;;;;5076783;28;20471;-83
2021/03/15 11:47:55;;;;;;;3.20;2.50;;;11.80;46.80;;;;;;5077102;28;20452;-83
2021/03/15 11:50:22;;;;;;;2.80;2.60;;;12.00;46.90;;;;;;5076583;28;20455;-85
2021/03/15 11:52:49;;;;;;;2.60;2.40;;;11.90;46.40;;;;;;5076658;28;20483;-85
2021/03/15 11:55:16;;;;;;;2.80;2.27;;;11.90;47.30;;;;;;5077192;28;21007;-85
2021/03/15 11:57:43;;;;;;;2.57;2.30;;;11.70;46.80;;;;;;5079956;28;20577;-85
2021/03/15 12:00:12;;;;;;;3.03;2.63;;;11.60;46.30;;;;;;5087214;28;20442;-83
2021/03/15 12:02:39;;;;;;;2.40;2.20;;;11.40;47.50;;;;;;5086177;28;20443;-85
2021/03/15 12:05:08;;;;;;;2.27;2.17;;;11.90;47.90;;;;;;5088427;28;20491;-85
2021/03/15 12:07:35;;;;;;;2.93;2.20;;;12.30;46.00;;;;;;5084331;28;20471;-85
2021/03/15 12:10:01;;;;;;;2.70;2.40;;;12.50;46.70;;;;;;5083572;28;20435;-85
2021/03/15 12:12:28;;;;;;;2.40;2.20;;;12.90;44.70;;;;;;5083580;28;20455;-85
2021/03/15 12:14:56;;;;;;;2.63;2.10;;;13.10;43.60;;;;;;5082183;28;20467;-85
2021/03/15 12:17:22;;;;;;;2.50;2.30;;;13.20;43.80;;;;;;5081386;28;20451;-84
2021/03/15 12:19:49;;;;;;;3.13;2.30;;;13.70;43.00;;;;;;5079641;28;20470;-85
2021/03/15 12:22:15;;;;;;;2.93;2.20;;;13.80;42.40;;;;;;5082243;28;20439;-85
2021/03/15 12:24:41;;;;;;;2.93;2.30;;;13.50;42.10;;;;;;5079559;28;20481;-85
2021/03/15 12:27:08;;;;;;;5.10;2.40;;;13.20;42.90;;;;;;5080899;28;20450;-85
2021/03/15 12:29:37;;;;;;;2.50;2.30;;;13.10;42.20;;;;;;5081988;28;20447;-85
2021/03/15 12:32:05;;;;;;;2.20;2.00;;;13.00;43.20;;;;;;5079709;28;20944;-85
2021/03/15 12:34:31;;;;;;;2.50;2.30;;;12.30;44.00;;;;;;5079157;28;20472;-85
2021/03/15 12:36:58;;;;;;;2.73;2.37;;;11.90;44.30;;;;;;5082781;28;20428;-85
2021/03/15 12:39:25;;;;;;;2.37;2.10;;;11.20;45.50;;;;;;5084378;28;20451;-84
2021/03/15 12:41:51;;;;;;;1.97;1.87;;;11.10;47.30;;;;;;5080172;28;20447;-84
2021/03/15 12:44:18;;;;;;;2.07;1.90;;;10.80;47.00;;;;;;5085686;28;20996;-84
2021/03/15 12:46:44;;;;;;;2.23;2.03;;;11.10;47.40;;;;;;5083725;28;20445;-84
2021/03/15 12:49:12;;;;;;;2.47;2.27;;;11.60;46.00;;;;;;5084462;28;20502;-85
2021/03/15 12:51:39;;;;;;;2.30;2.13;;;11.70;46.80;;;;;;5082042;28;20446;-85
2021/03/15 12:54:07;;;;;;;2.20;2.00;;;12.00;45.20;;;;;;5082162;28;20490;-84
2021/03/15 12:56:33;;;;;;;2.47;2.33;;;12.40;45.70;;;;;;5082435;28;20486;-86
2021/03/15 12:59:00;;;;;;;2.70;2.50;;;12.70;44.50;;;;;;5081778;28;20899;-86
2021/03/15 13:01:28;;;;;;;2.43;2.30;;;13.00;43.70;;;;;;5084581;28;20458;-85
2021/03/15 13:03:54;;;;;;;2.57;2.37;;;13.30;43.90;;;;;;5085574;28;20471;-85
2021/03/15 13:06:22;;;;;;;2.40;2.20;;;13.30;41.60;;;;;;5083467;28;20436;-85
2021/03/15 13:08:49;;;;;;;2.63;2.43;;;13.20;43.00;;;;;;5080884;28;20443;-85
2021/03/15 13:11:17;;;;;;;2.50;2.33;;;13.20;43.80;;;;;;5078574;28;20462;-85